Yellowknife, Northwest Territories

4:53 PM MDT on October 22, 2014 (GMT -0600)
Yellowknife | Change Station
CLOSE
Current Station
Airport
Location: Yellowknife,
Elevation: 205 m
Nearby Weather Stations

Elev 205 m 62.46 °N, 114.44 °W | Updated 11 minutes ago

Overcast
Overcast
1 °C
Feels Like -4 °C
N
18
Wind Variable Wind from East

Today
High -- | Low -- °C
--% Chance of Precip.
Yesterday
High -- | Low -- °C
Precip. -- mm
8:43 AM 5:59 PM
Waning Crescent, 1% visible
Pressure 1008 hPa
Visibility 19.3 kilometers
Clouds Overcast 213 m
Windchill -4 °C
Dew Point 0 °C
Humidity 93%
Rainfall 0.0 mm
Snow Depth Not available.
UV 0 out of 12
Pollen Not available.
Air Quality Not available.
Flu Activity Not available.
SPECI CYZF 222242Z 09010KT 12SM OVC007 01/M00 A2973 RMK SC8 CIG RAG SLP082

More Conditions Fewer Conditions

Pressure 1008 hPa
Visibility 19.3 kilometers
Clouds Overcast 213 m
Windchill -4 °C
Dew Point 0 °C
Humidity 93%
Rainfall 0.0 mm
Snow Depth Not available.
UV 0 out of 12
Pollen Not available.
Air Quality Not available.
Flu Activity Not available.
SPECI CYZF 222242Z 09010KT 12SM OVC007 01/M00 A2973 RMK SC8 CIG RAG SLP082

More Conditions Fewer Conditions

10-Day Weather Forecast

Almanac

Astronomy

Oct. 22, 2014 Rise Set
Actual Time 8:43 AM MDT 5:59 PM MDT
Civil Twilight 7:56 AM MDT 6:46 PM MDT
Nautical Twilight 7:03 AM MDT 7:39 PM MDT
Astronomical Twilight 6:11 AM MDT 8:31 PM MDT
Moon 7:07 AM MDT 5:43 PM MDT
Length of Visible Light 10h 50m
Length of Day
9h 16m
Tomorrow will be 5m 58s shorter.
Waning Crescent, 1% of the Moon is Illuminated
Today
Waning Crescent
Oct 23
New
Oct 30
First Quarter
Nov 6
Full
Nov 14
Last Quarter

Today's Extremes

Country Highs Country Lows

Community

WunderPhotos

Upload Photos

1,764,065 photos uploaded!

WunderBlogs® & News

Nearby

Snow Depth

Not available.

Earthquake Activity

City Distance Mag. Time & Date
No recent earthquake activity has been reported nearby.
Minimum magnitude displayed is 2.5.

Coastal Water Temperatures

Place Temperature
No Stations Reporting

Nearby Weather Stations